Terminal Aerodrome Forecast
Issued by NWS

Current Version | Previous Version | Text Only | Print | Product List | Glossary On
Versions: 1 2 3 4 5 6 7 8 9 10 11 12 13 14 15
000
FTUS43 KGRB 032325
TAFATW
TAF
KATW 032325Z 0400/0424 30009KT P6SM SCT060 BKN090
     FM040600 29005KT P6SM SCT090
     FM041500 30010KT P6SM BKN045
     FM042200 34006KT P6SM SCT040=

USA.gov is the U.S. government's official web portal to all federal, state and local government web resources and services.